Terminal Aerodrome Forecast
Issued by NWS

Home | Current Version | Previous Version | Text Only | Print | Product List | Glossary Off
Versions: 1 2 3 4 5 6 7 8 9 10 11 12 13 14 15 16 17 18 19 20 21

000
FTUS43 KGRB 271516 AAA
TAFATW
TAF AMD
KATW 271516Z 2715/2812 29010G19KT 6SM -RA SCT009 OVC013
      TEMPO 2715/2717 3SM -SHRA OVC009
     FM271700 29011G18KT P6SM SCT020 BKN035
     FM272000 23010KT P6SM BKN035
     FM280100 20006KT P6SM SCT035 SCT080
     FM280500 21004KT P6SM SKC
      TEMPO 2807/2811 2SM BR SCT004=

USA.gov is the U.S. government's official web portal to all federal, state and local government web resources and services.